sensor_id;sensor_type;location;lat;lon;timestamp;P1;durP1;ratioP1;P2;durP2;ratioP2
71639;SDS011;60912;48.968;10.124;2023-08-24T00:01:30;9.93;;;6.60;;
71639;SDS011;60912;48.968;10.124;2023-08-24T00:03:55;8.03;;;6.83;;
71639;SDS011;60912;48.968;10.124;2023-08-24T00:06:21;9.93;;;6.93;;
71639;SDS011;60912;48.968;10.124;2023-08-24T00:08:46;11.13;;;7.20;;
71639;SDS011;60912;48.968;10.124;2023-08-24T00:11:12;11.03;;;6.93;;
71639;SDS011;60912;48.968;10.124;2023-08-24T00:13:40;9.80;;;6.73;;
71639;SDS011;60912;48.968;10.124;2023-08-24T00:16:07;10.68;;;7.40;;
71639;SDS011;60912;48.968;10.124;2023-08-24T00:18:32;9.30;;;7.47;;
71639;SDS011;60912;48.968;10.124;2023-08-24T00:20:58;11.90;;;6.80;;
71639;SDS011;60912;48.968;10.124;2023-08-24T00:23:23;9.20;;;6.97;;
71639;SDS011;60912;48.968;10.124;2023-08-24T00:25:48;10.93;;;7.87;;
71639;SDS011;60912;48.968;10.124;2023-08-24T00:28:14;9.30;;;7.53;;
71639;SDS011;60912;48.968;10.124;2023-08-24T00:30:39;8.47;;;7.00;;
71639;SDS011;60912;48.968;10.124;2023-08-24T00:33:04;12.63;;;7.60;;
71639;SDS011;60912;48.968;10.124;2023-08-24T00:35:30;10.67;;;7.83;;
71639;SDS011;60912;48.968;10.124;2023-08-24T00:37:55;9.00;;;7.97;;
71639;SDS011;60912;48.968;10.124;2023-08-24T00:40:21;10.43;;;8.27;;
71639;SDS011;60912;48.968;10.124;2023-08-24T00:42:46;10.57;;;7.90;;
71639;SDS011;60912;48.968;10.124;2023-08-24T00:45:12;11.85;;;7.72;;
71639;SDS011;60912;48.968;10.124;2023-08-24T00:47:47;8.87;;;6.43;;
71639;SDS011;60912;48.968;10.124;2023-08-24T00:50:13;9.20;;;6.88;;
71639;SDS011;60912;48.968;10.124;2023-08-24T00:52:39;10.90;;;6.30;;
71639;SDS011;60912;48.968;10.124;2023-08-24T00:55:07;11.90;;;6.40;;
71639;SDS011;60912;48.968;10.124;2023-08-24T00:57:33;9.13;;;6.68;;
71639;SDS011;60912;48.968;10.124;2023-08-24T01:00:02;7.88;;;6.50;;
71639;SDS011;60912;48.968;10.124;2023-08-24T01:02:30;9.47;;;6.10;;
71639;SDS011;60912;48.968;10.124;2023-08-24T01:04:56;9.30;;;6.65;;
71639;SDS011;60912;48.968;10.124;2023-08-24T01:07:21;9.03;;;6.53;;
71639;SDS011;60912;48.968;10.124;2023-08-24T01:09:47;10.43;;;6.70;;
71639;SDS011;60912;48.968;10.124;2023-08-24T01:14:57;8.80;;;5.78;;
71639;SDS011;60912;48.968;10.124;2023-08-24T01:17:42;8.68;;;5.93;;
71639;SDS011;60912;48.968;10.124;2023-08-24T01:20:09;12.73;;;6.65;;
71639;SDS011;60912;48.968;10.124;2023-08-24T01:27:38;8.25;;;6.30;;
71639;SDS011;60912;48.968;10.124;2023-08-24T01:30:06;7.97;;;6.25;;
71639;SDS011;60912;48.968;10.124;2023-08-24T01:32:33;8.65;;;6.43;;
71639;SDS011;60912;48.968;10.124;2023-08-24T01:35:01;8.20;;;6.63;;
71639;SDS011;60912;48.968;10.124;2023-08-24T01:37:27;11.13;;;6.88;;
71639;SDS011;60912;48.968;10.124;2023-08-24T01:42:39;9.93;;;6.13;;
71639;SDS011;60912;48.968;10.124;2023-08-24T01:45:16;8.60;;;5.80;;
71639;SDS011;60912;48.968;10.124;2023-08-24T01:47:44;8.82;;;5.85;;
71639;SDS011;60912;48.968;10.124;2023-08-24T01:50:12;6.72;;;5.90;;
71639;SDS011;60912;48.968;10.124;2023-08-24T01:52:38;11.60;;;6.15;;
71639;SDS011;60912;48.968;10.124;2023-08-24T01:55:04;9.67;;;6.90;;
71639;SDS011;60912;48.968;10.124;2023-08-24T01:57:29;9.15;;;6.45;;
71639;SDS011;60912;48.968;10.124;2023-08-24T01:59:55;14.27;;;7.07;;
71639;SDS011;60912;48.968;10.124;2023-08-24T02:02:20;8.83;;;6.33;;
71639;SDS011;60912;48.968;10.124;2023-08-24T02:04:46;7.70;;;6.70;;
71639;SDS011;60912;48.968;10.124;2023-08-24T02:07:12;8.90;;;6.40;;
71639;SDS011;60912;48.968;10.124;2023-08-24T02:09:37;7.63;;;5.60;;
71639;SDS011;60912;48.968;10.124;2023-08-24T02:12:03;8.87;;;6.60;;
71639;SDS011;60912;48.968;10.124;2023-08-24T02:14:28;8.18;;;6.05;;
71639;SDS011;60912;48.968;10.124;2023-08-24T02:16:54;9.00;;;6.00;;
71639;SDS011;60912;48.968;10.124;2023-08-24T02:19:19;9.97;;;6.13;;
71639;SDS011;60912;48.968;10.124;2023-08-24T02:21:44;9.35;;;6.20;;
71639;SDS011;60912;48.968;10.124;2023-08-24T02:24:10;9.53;;;5.90;;
71639;SDS011;60912;48.968;10.124;2023-08-24T02:26:35;10.03;;;5.90;;
71639;SDS011;60912;48.968;10.124;2023-08-24T02:29:00;8.43;;;6.03;;
71639;SDS011;60912;48.968;10.124;2023-08-24T02:31:26;9.80;;;6.03;;
71639;SDS011;60912;48.968;10.124;2023-08-24T02:33:51;6.50;;;5.40;;
71639;SDS011;60912;48.968;10.124;2023-08-24T02:36:17;8.82;;;5.90;;
71639;SDS011;60912;48.968;10.124;2023-08-24T02:38:42;7.87;;;5.50;;
71639;SDS011;60912;48.968;10.124;2023-08-24T02:41:07;7.37;;;5.57;;
71639;SDS011;60912;48.968;10.124;2023-08-24T02:43:34;7.97;;;5.45;;
71639;SDS011;60912;48.968;10.124;2023-08-24T02:46:03;7.63;;;5.13;;
71639;SDS011;60912;48.968;10.124;2023-08-24T02:48:29;8.40;;;5.10;;
71639;SDS011;60912;48.968;10.124;2023-08-24T02:50:57;9.15;;;6.53;;
71639;SDS011;60912;48.968;10.124;2023-08-24T02:53:23;9.05;;;5.70;;
71639;SDS011;60912;48.968;10.124;2023-08-24T02:55:48;8.30;;;5.30;;
71639;SDS011;60912;48.968;10.124;2023-08-24T02:58:14;7.57;;;5.70;;
71639;SDS011;60912;48.968;10.124;2023-08-24T03:00:39;10.43;;;5.80;;
71639;SDS011;60912;48.968;10.124;2023-08-24T03:03:05;9.63;;;5.63;;
71639;SDS011;60912;48.968;10.124;2023-08-24T03:05:31;8.20;;;5.80;;
71639;SDS011;60912;48.968;10.124;2023-08-24T03:07:57;8.88;;;5.68;;
71639;SDS011;60912;48.968;10.124;2023-08-24T03:10:23;9.68;;;5.60;;
71639;SDS011;60912;48.968;10.124;2023-08-24T03:12:48;10.70;;;5.50;;
71639;SDS011;60912;48.968;10.124;2023-08-24T03:15:13;6.00;;;5.10;;
71639;SDS011;60912;48.968;10.124;2023-08-24T03:17:39;9.20;;;5.93;;
71639;SDS011;60912;48.968;10.124;2023-08-24T03:20:04;7.17;;;5.70;;
71639;SDS011;60912;48.968;10.124;2023-08-24T03:22:30;7.25;;;5.75;;
71639;SDS011;60912;48.968;10.124;2023-08-24T03:24:56;12.30;;;5.30;;
71639;SDS011;60912;48.968;10.124;2023-08-24T03:27:21;9.47;;;6.10;;
71639;SDS011;60912;48.968;10.124;2023-08-24T03:29:46;7.60;;;5.60;;
71639;SDS011;60912;48.968;10.124;2023-08-24T03:32:15;13.00;;;5.40;;
71639;SDS011;60912;48.968;10.124;2023-08-24T03:34:40;7.85;;;5.80;;
71639;SDS011;60912;48.968;10.124;2023-08-24T03:37:06;8.20;;;5.77;;
71639;SDS011;60912;48.968;10.124;2023-08-24T03:39:31;11.20;;;5.90;;
71639;SDS011;60912;48.968;10.124;2023-08-24T03:41:57;7.60;;;5.60;;
71639;SDS011;60912;48.968;10.124;2023-08-24T03:44:22;8.40;;;5.80;;
71639;SDS011;60912;48.968;10.124;2023-08-24T03:46:47;9.43;;;5.50;;
71639;SDS011;60912;48.968;10.124;2023-08-24T03:49:13;7.73;;;5.90;;
71639;SDS011;60912;48.968;10.124;2023-08-24T03:51:38;7.47;;;5.53;;
71639;SDS011;60912;48.968;10.124;2023-08-24T03:54:04;8.50;;;5.77;;
71639;SDS011;60912;48.968;10.124;2023-08-24T03:56:30;6.87;;;5.57;;
71639;SDS011;60912;48.968;10.124;2023-08-24T03:58:56;7.60;;;5.30;;
71639;SDS011;60912;48.968;10.124;2023-08-24T04:01:21;8.27;;;5.60;;
71639;SDS011;60912;48.968;10.124;2023-08-24T04:03:47;12.85;;;5.57;;
71639;SDS011;60912;48.968;10.124;2023-08-24T04:06:14;8.87;;;5.90;;
71639;SDS011;60912;48.968;10.124;2023-08-24T04:08:39;9.73;;;6.10;;
71639;SDS011;60912;48.968;10.124;2023-08-24T04:11:05;8.37;;;5.43;;
71639;SDS011;60912;48.968;10.124;2023-08-24T04:13:30;10.27;;;6.23;;
71639;SDS011;60912;48.968;10.124;2023-08-24T04:15:55;7.93;;;5.23;;
71639;SDS011;60912;48.968;10.124;2023-08-24T04:18:20;6.83;;;5.50;;
71639;SDS011;60912;48.968;10.124;2023-08-24T04:20:46;8.45;;;5.70;;
71639;SDS011;60912;48.968;10.124;2023-08-24T04:23:13;11.03;;;6.17;;
71639;SDS011;60912;48.968;10.124;2023-08-24T04:25:39;10.05;;;6.00;;
71639;SDS011;60912;48.968;10.124;2023-08-24T04:28:05;10.17;;;6.20;;
71639;SDS011;60912;48.968;10.124;2023-08-24T04:30:30;9.30;;;5.47;;
71639;SDS011;60912;48.968;10.124;2023-08-24T04:32:55;8.00;;;5.68;;
71639;SDS011;60912;48.968;10.124;2023-08-24T04:35:21;8.00;;;5.73;;
71639;SDS011;60912;48.968;10.124;2023-08-24T04:37:50;7.68;;;5.97;;
71639;SDS011;60912;48.968;10.124;2023-08-24T04:40:15;9.87;;;6.37;;
71639;SDS011;60912;48.968;10.124;2023-08-24T04:42:40;10.30;;;6.20;;
71639;SDS011;60912;48.968;10.124;2023-08-24T04:45:06;9.23;;;5.88;;
71639;SDS011;60912;48.968;10.124;2023-08-24T04:47:32;8.00;;;6.07;;
71639;SDS011;60912;48.968;10.124;2023-08-24T04:49:57;8.20;;;5.80;;
71639;SDS011;60912;48.968;10.124;2023-08-24T04:52:23;9.65;;;5.70;;
71639;SDS011;60912;48.968;10.124;2023-08-24T04:54:48;7.63;;;5.03;;
71639;SDS011;60912;48.968;10.124;2023-08-24T04:57:13;9.33;;;5.50;;
71639;SDS011;60912;48.968;10.124;2023-08-24T04:59:39;12.77;;;5.60;;
71639;SDS011;60912;48.968;10.124;2023-08-24T05:02:04;7.50;;;5.10;;
71639;SDS011;60912;48.968;10.124;2023-08-24T05:04:29;7.13;;;4.83;;
71639;SDS011;60912;48.968;10.124;2023-08-24T05:06:55;7.57;;;4.97;;
71639;SDS011;60912;48.968;10.124;2023-08-24T05:09:20;11.37;;;5.00;;
71639;SDS011;60912;48.968;10.124;2023-08-24T05:11:45;8.17;;;5.07;;
71639;SDS011;60912;48.968;10.124;2023-08-24T05:14:11;8.53;;;4.50;;
71639;SDS011;60912;48.968;10.124;2023-08-24T05:16:38;10.32;;;4.88;;
71639;SDS011;60912;48.968;10.124;2023-08-24T05:19:03;8.23;;;4.97;;
71639;SDS011;60912;48.968;10.124;2023-08-24T05:21:28;6.80;;;4.70;;
71639;SDS011;60912;48.968;10.124;2023-08-24T05:23:54;9.10;;;4.73;;
71639;SDS011;60912;48.968;10.124;2023-08-24T05:26:19;8.63;;;5.00;;
71639;SDS011;60912;48.968;10.124;2023-08-24T05:28:47;8.23;;;4.65;;
71639;SDS011;60912;48.968;10.124;2023-08-24T05:31:12;7.60;;;4.60;;
71639;SDS011;60912;48.968;10.124;2023-08-24T05:33:38;8.73;;;4.50;;
71639;SDS011;60912;48.968;10.124;2023-08-24T05:36:03;6.45;;;4.28;;
71639;SDS011;60912;48.968;10.124;2023-08-24T05:38:29;7.40;;;4.40;;
71639;SDS011;60912;48.968;10.124;2023-08-24T05:40:54;7.23;;;4.77;;
71639;SDS011;60912;48.968;10.124;2023-08-24T05:43:19;7.77;;;5.03;;
71639;SDS011;60912;48.968;10.124;2023-08-24T05:45:45;6.77;;;4.93;;
71639;SDS011;60912;48.968;10.124;2023-08-24T05:48:11;6.80;;;4.03;;
71639;SDS011;60912;48.968;10.124;2023-08-24T05:50:37;8.07;;;5.03;;
71639;SDS011;60912;48.968;10.124;2023-08-24T05:53:03;7.10;;;5.03;;
71639;SDS011;60912;48.968;10.124;2023-08-24T05:55:28;8.67;;;4.50;;
71639;SDS011;60912;48.968;10.124;2023-08-24T05:57:53;9.60;;;4.70;;
71639;SDS011;60912;48.968;10.124;2023-08-24T06:00:19;9.73;;;4.90;;
71639;SDS011;60912;48.968;10.124;2023-08-24T06:02:47;9.48;;;4.65;;
71639;SDS011;60912;48.968;10.124;2023-08-24T06:05:12;6.53;;;4.80;;
71639;SDS011;60912;48.968;10.124;2023-08-24T06:07:37;10.40;;;4.87;;
71639;SDS011;60912;48.968;10.124;2023-08-24T06:10:03;7.80;;;4.77;;
71639;SDS011;60912;48.968;10.124;2023-08-24T06:12:29;8.52;;;4.65;;
71639;SDS011;60912;48.968;10.124;2023-08-24T06:14:54;7.53;;;4.33;;
71639;SDS011;60912;48.968;10.124;2023-08-24T06:17:19;8.70;;;4.90;;
71639;SDS011;60912;48.968;10.124;2023-08-24T06:19:45;6.80;;;4.23;;
71639;SDS011;60912;48.968;10.124;2023-08-24T06:22:10;8.37;;;4.30;;
71639;SDS011;60912;48.968;10.124;2023-08-24T06:24:35;9.50;;;4.40;;
71639;SDS011;60912;48.968;10.124;2023-08-24T06:27:01;9.67;;;4.53;;
71639;SDS011;60912;48.968;10.124;2023-08-24T06:29:28;11.33;;;3.73;;
71639;SDS011;60912;48.968;10.124;2023-08-24T06:31:53;13.38;;;4.30;;
71639;SDS011;60912;48.968;10.124;2023-08-24T06:34:20;13.68;;;4.20;;
71639;SDS011;60912;48.968;10.124;2023-08-24T06:36:45;14.37;;;4.67;;
71639;SDS011;60912;48.968;10.124;2023-08-24T06:39:10;8.77;;;3.43;;
71639;SDS011;60912;48.968;10.124;2023-08-24T06:41:36;8.95;;;4.22;;
71639;SDS011;60912;48.968;10.124;2023-08-24T06:44:01;9.30;;;3.73;;
71639;SDS011;60912;48.968;10.124;2023-08-24T06:46:27;8.03;;;3.97;;
71639;SDS011;60912;48.968;10.124;2023-08-24T06:48:52;11.93;;;4.13;;
71639;SDS011;60912;48.968;10.124;2023-08-24T06:51:18;10.13;;;4.00;;
71639;SDS011;60912;48.968;10.124;2023-08-24T06:53:43;9.43;;;4.17;;
71639;SDS011;60912;48.968;10.124;2023-08-24T06:56:08;8.33;;;3.63;;
71639;SDS011;60912;48.968;10.124;2023-08-24T06:58:34;18.23;;;4.83;;
71639;SDS011;60912;48.968;10.124;2023-08-24T07:00:59;15.88;;;4.03;;
71639;SDS011;60912;48.968;10.124;2023-08-24T07:03:25;21.73;;;4.87;;
71639;SDS011;60912;48.968;10.124;2023-08-24T07:05:50;21.43;;;4.77;;
71639;SDS011;60912;48.968;10.124;2023-08-24T07:08:16;7.95;;;4.28;;
71639;SDS011;60912;48.968;10.124;2023-08-24T07:10:42;6.70;;;3.90;;
71639;SDS011;60912;48.968;10.124;2023-08-24T07:13:07;9.10;;;4.00;;
71639;SDS011;60912;48.968;10.124;2023-08-24T07:15:34;12.97;;;4.13;;
71639;SDS011;60912;48.968;10.124;2023-08-24T07:18:00;8.30;;;4.10;;
71639;SDS011;60912;48.968;10.124;2023-08-24T07:20:26;8.02;;;3.60;;
71639;SDS011;60912;48.968;10.124;2023-08-24T07:22:52;7.37;;;3.60;;
71639;SDS011;60912;48.968;10.124;2023-08-24T07:25:19;9.20;;;3.85;;
71639;SDS011;60912;48.968;10.124;2023-08-24T07:27:45;8.83;;;4.27;;
71639;SDS011;60912;48.968;10.124;2023-08-24T07:30:11;6.97;;;3.80;;
71639;SDS011;60912;48.968;10.124;2023-08-24T07:32:36;6.10;;;3.90;;
71639;SDS011;60912;48.968;10.124;2023-08-24T07:35:02;10.35;;;3.80;;
71639;SDS011;60912;48.968;10.124;2023-08-24T07:37:28;7.77;;;3.77;;
71639;SDS011;60912;48.968;10.124;2023-08-24T07:39:53;8.98;;;3.55;;
71639;SDS011;60912;48.968;10.124;2023-08-24T07:42:19;6.30;;;3.60;;
71639;SDS011;60912;48.968;10.124;2023-08-24T07:44:46;9.50;;;4.30;;
71639;SDS011;60912;48.968;10.124;2023-08-24T07:47:11;10.00;;;3.93;;
71639;SDS011;60912;48.968;10.124;2023-08-24T07:49:37;9.97;;;4.23;;
71639;SDS011;60912;48.968;10.124;2023-08-24T07:52:08;7.88;;;4.00;;
71639;SDS011;60912;48.968;10.124;2023-08-24T07:54:33;6.23;;;3.80;;
71639;SDS011;60912;48.968;10.124;2023-08-24T07:56:58;8.00;;;3.93;;
71639;SDS011;60912;48.968;10.124;2023-08-24T07:59:24;11.77;;;3.90;;
71639;SDS011;60912;48.968;10.124;2023-08-24T08:01:49;8.48;;;3.55;;
71639;SDS011;60912;48.968;10.124;2023-08-24T08:04:15;10.23;;;3.87;;
71639;SDS011;60912;48.968;10.124;2023-08-24T08:06:40;9.13;;;3.87;;
71639;SDS011;60912;48.968;10.124;2023-08-24T08:09:06;8.43;;;3.80;;
71639;SDS011;60912;48.968;10.124;2023-08-24T08:11:31;6.18;;;3.72;;
71639;SDS011;60912;48.968;10.124;2023-08-24T08:13:57;8.77;;;3.70;;
71639;SDS011;60912;48.968;10.124;2023-08-24T08:16:22;9.03;;;3.80;;
71639;SDS011;60912;48.968;10.124;2023-08-24T08:18:47;8.30;;;3.63;;
71639;SDS011;60912;48.968;10.124;2023-08-24T08:21:16;8.07;;;3.35;;
71639;SDS011;60912;48.968;10.124;2023-08-24T08:23:43;7.13;;;3.60;;
71639;SDS011;60912;48.968;10.124;2023-08-24T08:26:10;7.55;;;3.63;;
71639;SDS011;60912;48.968;10.124;2023-08-24T08:28:36;5.63;;;3.40;;
71639;SDS011;60912;48.968;10.124;2023-08-24T08:31:01;7.37;;;3.40;;
71639;SDS011;60912;48.968;10.124;2023-08-24T08:33:28;5.90;;;3.35;;
71639;SDS011;60912;48.968;10.124;2023-08-24T08:35:53;5.57;;;3.30;;
71639;SDS011;60912;48.968;10.124;2023-08-24T08:38:18;6.72;;;3.60;;
71639;SDS011;60912;48.968;10.124;2023-08-24T08:40:47;8.73;;;3.63;;
71639;SDS011;60912;48.968;10.124;2023-08-24T08:43:14;8.13;;;3.70;;
71639;SDS011;60912;48.968;10.124;2023-08-24T08:45:39;8.00;;;3.90;;
71639;SDS011;60912;48.968;10.124;2023-08-24T08:48:06;9.32;;;3.10;;
71639;SDS011;60912;48.968;10.124;2023-08-24T08:50:33;6.70;;;3.58;;
71639;SDS011;60912;48.968;10.124;2023-08-24T08:53:00;6.32;;;3.50;;
71639;SDS011;60912;48.968;10.124;2023-08-24T08:55:26;10.83;;;3.33;;
71639;SDS011;60912;48.968;10.124;2023-08-24T08:57:53;6.32;;;3.35;;
71639;SDS011;60912;48.968;10.124;2023-08-24T09:00:23;11.88;;;4.05;;
71639;SDS011;60912;48.968;10.124;2023-08-24T09:02:49;8.50;;;3.45;;
71639;SDS011;60912;48.968;10.124;2023-08-24T09:05:16;8.57;;;3.30;;
71639;SDS011;60912;48.968;10.124;2023-08-24T09:07:42;8.50;;;3.50;;
71639;SDS011;60912;48.968;10.124;2023-08-24T09:10:08;8.03;;;3.40;;
71639;SDS011;60912;48.968;10.124;2023-08-24T09:12:34;6.63;;;3.53;;
71639;SDS011;60912;48.968;10.124;2023-08-24T09:15:02;8.65;;;3.58;;
71639;SDS011;60912;48.968;10.124;2023-08-24T09:17:29;10.15;;;3.30;;
71639;SDS011;60912;48.968;10.124;2023-08-24T09:20:00;6.70;;;3.50;;
71639;SDS011;60912;48.968;10.124;2023-08-24T09:22:34;7.63;;;3.30;;
71639;SDS011;60912;48.968;10.124;2023-08-24T09:25:01;8.90;;;3.40;;
71639;SDS011;60912;48.968;10.124;2023-08-24T09:27:29;8.65;;;3.60;;
71639;SDS011;60912;48.968;10.124;2023-08-24T09:29:54;8.13;;;3.70;;
71639;SDS011;60912;48.968;10.124;2023-08-24T09:34:49;8.75;;;3.10;;
71639;SDS011;60912;48.968;10.124;2023-08-24T09:37:15;7.87;;;3.40;;
71639;SDS011;60912;48.968;10.124;2023-08-24T09:39:41;6.38;;;3.45;;
71639;SDS011;60912;48.968;10.124;2023-08-24T09:42:06;10.07;;;3.60;;
71639;SDS011;60912;48.968;10.124;2023-08-24T09:44:32;7.23;;;3.57;;
71639;SDS011;60912;48.968;10.124;2023-08-24T09:46:58;7.00;;;3.43;;
71639;SDS011;60912;48.968;10.124;2023-08-24T09:49:24;7.30;;;3.67;;
71639;SDS011;60912;48.968;10.124;2023-08-24T09:51:51;9.43;;;3.57;;
71639;SDS011;60912;48.968;10.124;2023-08-24T09:54:21;6.28;;;3.20;;
71639;SDS011;60912;48.968;10.124;2023-08-24T09:56:51;8.07;;;4.03;;
71639;SDS011;60912;48.968;10.124;2023-08-24T09:59:17;6.97;;;3.70;;
71639;SDS011;60912;48.968;10.124;2023-08-24T10:01:46;8.38;;;3.80;;
71639;SDS011;60912;48.968;10.124;2023-08-24T10:04:17;7.37;;;3.23;;
71639;SDS011;60912;48.968;10.124;2023-08-24T10:06:48;6.18;;;3.25;;
71639;SDS011;60912;48.968;10.124;2023-08-24T10:09:25;8.55;;;3.67;;
71639;SDS011;60912;48.968;10.124;2023-08-24T10:12:00;13.93;;;3.42;;
71639;SDS011;60912;48.968;10.124;2023-08-24T10:16:58;8.87;;;3.47;;
71639;SDS011;60912;48.968;10.124;2023-08-24T10:19:23;9.98;;;3.88;;
71639;SDS011;60912;48.968;10.124;2023-08-24T10:21:49;9.77;;;4.10;;
71639;SDS011;60912;48.968;10.124;2023-08-24T10:24:16;8.85;;;3.70;;
71639;SDS011;60912;48.968;10.124;2023-08-24T10:26:42;9.50;;;3.83;;
71639;SDS011;60912;48.968;10.124;2023-08-24T10:29:08;13.23;;;3.72;;
71639;SDS011;60912;48.968;10.124;2023-08-24T10:31:33;9.17;;;3.73;;
71639;SDS011;60912;48.968;10.124;2023-08-24T10:34:00;9.52;;;3.83;;
71639;SDS011;60912;48.968;10.124;2023-08-24T10:36:26;10.10;;;3.53;;
71639;SDS011;60912;48.968;10.124;2023-08-24T10:38:54;9.83;;;4.00;;
71639;SDS011;60912;48.968;10.124;2023-08-24T10:41:25;8.02;;;3.45;;
71639;SDS011;60912;48.968;10.124;2023-08-24T10:43:51;6.68;;;3.50;;
71639;SDS011;60912;48.968;10.124;2023-08-24T10:46:17;7.83;;;4.40;;
71639;SDS011;60912;48.968;10.124;2023-08-24T10:56:12;6.00;;;3.50;;
71639;SDS011;60912;48.968;10.124;2023-08-24T10:58:38;7.53;;;3.75;;
71639;SDS011;60912;48.968;10.124;2023-08-24T11:01:04;10.67;;;3.80;;
71639;SDS011;60912;48.968;10.124;2023-08-24T11:03:35;10.85;;;3.70;;
71639;SDS011;60912;48.968;10.124;2023-08-24T11:06:00;9.80;;;3.90;;
71639;SDS011;60912;48.968;10.124;2023-08-24T11:11:20;7.50;;;3.93;;
71639;SDS011;60912;48.968;10.124;2023-08-24T11:16:47;10.13;;;3.90;;
71639;SDS011;60912;48.968;10.124;2023-08-24T11:19:14;9.93;;;3.63;;
71639;SDS011;60912;48.968;10.124;2023-08-24T11:21:41;6.72;;;3.58;;
71639;SDS011;60912;48.968;10.124;2023-08-24T11:24:08;8.47;;;3.77;;
71639;SDS011;60912;48.968;10.124;2023-08-24T11:26:34;10.95;;;3.90;;
71639;SDS011;60912;48.968;10.124;2023-08-24T11:29:04;7.30;;;3.57;;
71639;SDS011;60912;48.968;10.124;2023-08-24T11:31:30;6.82;;;3.58;;
71639;SDS011;60912;48.968;10.124;2023-08-24T11:33:55;7.80;;;3.70;;
71639;SDS011;60912;48.968;10.124;2023-08-24T11:36:21;10.15;;;4.60;;
71639;SDS011;60912;48.968;10.124;2023-08-24T11:38:48;10.10;;;3.90;;
71639;SDS011;60912;48.968;10.124;2023-08-24T11:41:15;8.43;;;3.60;;
71639;SDS011;60912;48.968;10.124;2023-08-24T11:43:42;8.20;;;3.80;;
71639;SDS011;60912;48.968;10.124;2023-08-24T11:46:09;8.75;;;3.88;;
71639;SDS011;60912;48.968;10.124;2023-08-24T11:48:34;8.53;;;3.60;;
71639;SDS011;60912;48.968;10.124;2023-08-24T11:51:02;8.07;;;3.70;;
71639;SDS011;60912;48.968;10.124;2023-08-24T11:53:28;9.25;;;4.03;;
71639;SDS011;60912;48.968;10.124;2023-08-24T11:55:56;6.72;;;3.70;;
71639;SDS011;60912;48.968;10.124;2023-08-24T11:58:22;9.57;;;3.30;;
71639;SDS011;60912;48.968;10.124;2023-08-24T12:00:47;8.13;;;3.70;;
71639;SDS011;60912;48.968;10.124;2023-08-24T12:03:13;8.50;;;3.40;;
71639;SDS011;60912;48.968;10.124;2023-08-24T12:05:39;9.37;;;4.00;;
71639;SDS011;60912;48.968;10.124;2023-08-24T12:08:04;7.87;;;3.60;;
71639;SDS011;60912;48.968;10.124;2023-08-24T12:10:30;7.80;;;3.87;;
71639;SDS011;60912;48.968;10.124;2023-08-24T12:13:03;9.38;;;3.50;;
71639;SDS011;60912;48.968;10.124;2023-08-24T12:15:30;7.82;;;3.50;;
71639;SDS011;60912;48.968;10.124;2023-08-24T12:17:55;6.90;;;3.40;;
71639;SDS011;60912;48.968;10.124;2023-08-24T12:20:21;9.07;;;3.70;;
71639;SDS011;60912;48.968;10.124;2023-08-24T12:22:51;9.87;;;3.70;;
71639;SDS011;60912;48.968;10.124;2023-08-24T12:25:16;7.97;;;3.40;;
71639;SDS011;60912;48.968;10.124;2023-08-24T12:27:41;12.23;;;3.67;;
71639;SDS011;60912;48.968;10.124;2023-08-24T12:30:07;12.02;;;4.10;;
71639;SDS011;60912;48.968;10.124;2023-08-24T12:32:42;6.70;;;3.37;;
71639;SDS011;60912;48.968;10.124;2023-08-24T12:35:14;10.15;;;3.40;;
71639;SDS011;60912;48.968;10.124;2023-08-24T12:37:40;8.50;;;3.80;;
71639;SDS011;60912;48.968;10.124;2023-08-24T12:40:06;11.93;;;3.90;;
71639;SDS011;60912;48.968;10.124;2023-08-24T12:42:32;7.70;;;3.60;;
71639;SDS011;60912;48.968;10.124;2023-08-24T12:44:58;7.53;;;3.63;;
71639;SDS011;60912;48.968;10.124;2023-08-24T12:47:23;7.13;;;3.63;;
71639;SDS011;60912;48.968;10.124;2023-08-24T12:49:48;10.48;;;3.67;;
71639;SDS011;60912;48.968;10.124;2023-08-24T12:52:19;9.93;;;3.90;;
71639;SDS011;60912;48.968;10.124;2023-08-24T12:54:44;10.88;;;3.53;;
71639;SDS011;60912;48.968;10.124;2023-08-24T12:57:10;5.60;;;3.30;;
71639;SDS011;60912;48.968;10.124;2023-08-24T12:59:35;10.43;;;3.40;;
71639;SDS011;60912;48.968;10.124;2023-08-24T13:02:00;7.30;;;3.30;;
71639;SDS011;60912;48.968;10.124;2023-08-24T13:04:26;7.93;;;3.60;;
71639;SDS011;60912;48.968;10.124;2023-08-24T13:06:54;13.70;;;3.90;;
71639;SDS011;60912;48.968;10.124;2023-08-24T13:09:20;10.07;;;3.40;;
71639;SDS011;60912;48.968;10.124;2023-08-24T13:11:45;9.77;;;3.30;;
71639;SDS011;60912;48.968;10.124;2023-08-24T13:14:11;5.47;;;3.10;;
71639;SDS011;60912;48.968;10.124;2023-08-24T13:16:37;4.83;;;3.40;;
71639;SDS011;60912;48.968;10.124;2023-08-24T13:19:02;7.38;;;3.35;;
71639;SDS011;60912;48.968;10.124;2023-08-24T13:21:27;7.07;;;3.70;;
71639;SDS011;60912;48.968;10.124;2023-08-24T13:23:53;8.90;;;3.37;;
71639;SDS011;60912;48.968;10.124;2023-08-24T13:26:19;8.03;;;3.70;;
71639;SDS011;60912;48.968;10.124;2023-08-24T13:28:45;13.10;;;3.88;;
71639;SDS011;60912;48.968;10.124;2023-08-24T13:31:14;7.40;;;3.57;;
71639;SDS011;60912;48.968;10.124;2023-08-24T13:33:39;8.07;;;3.47;;
71639;SDS011;60912;48.968;10.124;2023-08-24T13:36:05;9.37;;;3.63;;
71639;SDS011;60912;48.968;10.124;2023-08-24T13:38:30;7.10;;;3.57;;
71639;SDS011;60912;48.968;10.124;2023-08-24T13:40:56;7.88;;;3.50;;
71639;SDS011;60912;48.968;10.124;2023-08-24T13:43:22;7.00;;;3.50;;
71639;SDS011;60912;48.968;10.124;2023-08-24T13:45:47;9.73;;;3.40;;
71639;SDS011;60912;48.968;10.124;2023-08-24T13:48:13;6.53;;;3.60;;
71639;SDS011;60912;48.968;10.124;2023-08-24T13:50:40;4.97;;;3.22;;
71639;SDS011;60912;48.968;10.124;2023-08-24T13:53:06;8.80;;;3.47;;
71639;SDS011;60912;48.968;10.124;2023-08-24T13:55:32;10.73;;;3.23;;
71639;SDS011;60912;48.968;10.124;2023-08-24T13:57:57;9.80;;;3.20;;
71639;SDS011;60912;48.968;10.124;2023-08-24T14:00:23;6.50;;;3.47;;
71639;SDS011;60912;48.968;10.124;2023-08-24T14:02:49;7.20;;;3.30;;
71639;SDS011;60912;48.968;10.124;2023-08-24T14:05:14;6.38;;;3.25;;
71639;SDS011;60912;48.968;10.124;2023-08-24T14:07:40;12.37;;;3.40;;
71639;SDS011;60912;48.968;10.124;2023-08-24T14:10:06;8.20;;;3.40;;
71639;SDS011;60912;48.968;10.124;2023-08-24T14:12:32;8.38;;;3.20;;
71639;SDS011;60912;48.968;10.124;2023-08-24T14:14:58;6.00;;;3.10;;
71639;SDS011;60912;48.968;10.124;2023-08-24T14:17:23;9.97;;;3.40;;
71639;SDS011;60912;48.968;10.124;2023-08-24T14:19:48;9.43;;;3.70;;
71639;SDS011;60912;48.968;10.124;2023-08-24T14:22:14;10.17;;;3.67;;
71639;SDS011;60912;48.968;10.124;2023-08-24T14:24:39;7.32;;;3.30;;
71639;SDS011;60912;48.968;10.124;2023-08-24T14:27:05;10.47;;;3.20;;
71639;SDS011;60912;48.968;10.124;2023-08-24T14:29:30;9.33;;;3.27;;
71639;SDS011;60912;48.968;10.124;2023-08-24T14:31:55;6.20;;;3.37;;
71639;SDS011;60912;48.968;10.124;2023-08-24T14:34:21;7.97;;;3.63;;
71639;SDS011;60912;48.968;10.124;2023-08-24T14:36:46;7.17;;;3.20;;
71639;SDS011;60912;48.968;10.124;2023-08-24T14:39:12;6.65;;;3.40;;
71639;SDS011;60912;48.968;10.124;2023-08-24T14:41:37;7.30;;;3.30;;
71639;SDS011;60912;48.968;10.124;2023-08-24T14:44:02;5.17;;;3.20;;
71639;SDS011;60912;48.968;10.124;2023-08-24T14:46:28;8.97;;;3.30;;
71639;SDS011;60912;48.968;10.124;2023-08-24T14:48:53;9.27;;;3.47;;
71639;SDS011;60912;48.968;10.124;2023-08-24T14:51:18;8.80;;;3.50;;
71639;SDS011;60912;48.968;10.124;2023-08-24T14:53:44;7.73;;;3.30;;